sensor_id;sensor_type;location;lat;lon;timestamp;pressure;altitude;pressure_sealevel;temperature;humidity
78685;BME280;68002;52.310;6.990;2023-04-03T00:00:49;102752.50;;;3.28;71.17
78685;BME280;68002;52.310;6.990;2023-04-03T00:03:14;102753.44;;;3.25;70.25
78685;BME280;68002;52.310;6.990;2023-04-03T00:05:39;102753.56;;;3.22;70.76
78685;BME280;68002;52.310;6.990;2023-04-03T00:08:04;102757.09;;;3.21;69.92
78685;BME280;68002;52.310;6.990;2023-04-03T00:10:29;102751.09;;;3.16;72.87
78685;BME280;68002;52.310;6.990;2023-04-03T00:12:55;102753.00;;;3.11;72.09
78685;BME280;68002;52.310;6.990;2023-04-03T00:15:20;102743.44;;;3.07;72.46
78685;BME280;68002;52.310;6.990;2023-04-03T00:17:45;102757.50;;;3.08;72.36
78685;BME280;68002;52.310;6.990;2023-04-03T00:20:11;102761.00;;;3.08;71.26
78685;BME280;68002;52.310;6.990;2023-04-03T00:22:36;102762.81;;;3.06;72.99
78685;BME280;68002;52.310;6.990;2023-04-03T00:25:02;102762.00;;;3.04;72.68
78685;BME280;68002;52.310;6.990;2023-04-03T00:27:27;102755.91;;;3.02;71.74
78685;BME280;68002;52.310;6.990;2023-04-03T00:29:53;102772.66;;;3.01;73.19
78685;BME280;68002;52.310;6.990;2023-04-03T00:32:18;102770.94;;;3.00;74.93
78685;BME280;68002;52.310;6.990;2023-04-03T00:34:43;102768.31;;;2.98;73.58
78685;BME280;68002;52.310;6.990;2023-04-03T00:37:09;102769.31;;;2.96;72.27
78685;BME280;68002;52.310;6.990;2023-04-03T00:39:34;102775.41;;;2.98;73.93
78685;BME280;68002;52.310;6.990;2023-04-03T00:41:59;102769.41;;;2.93;75.46
78685;BME280;68002;52.310;6.990;2023-04-03T00:46:52;102769.41;;;2.93;74.25
78685;BME280;68002;52.310;6.990;2023-04-03T00:49:17;102756.25;;;2.90;73.19
78685;BME280;68002;52.310;6.990;2023-04-03T00:51:43;102773.81;;;2.92;74.71
78685;BME280;68002;52.310;6.990;2023-04-03T00:54:08;102764.13;;;2.91;73.69
78685;BME280;68002;52.310;6.990;2023-04-03T00:56:35;102776.56;;;2.88;75.08
78685;BME280;68002;52.310;6.990;2023-04-03T00:59:22;102769.56;;;2.87;75.17
78685;BME280;68002;52.310;6.990;2023-04-03T01:01:49;102768.84;;;2.82;75.28
78685;BME280;68002;52.310;6.990;2023-04-03T01:04:28;102770.66;;;2.80;74.92
78685;BME280;68002;52.310;6.990;2023-04-03T01:06:56;102770.66;;;2.80;75.85
78685;BME280;68002;52.310;6.990;2023-04-03T01:09:22;102774.28;;;2.76;75.05
78685;BME280;68002;52.310;6.990;2023-04-03T01:11:47;102788.38;;;2.75;73.64
78685;BME280;68002;52.310;6.990;2023-04-03T01:14:13;102781.38;;;2.74;75.27
78685;BME280;68002;52.310;6.990;2023-04-03T01:16:38;102783.09;;;2.75;75.77
78685;BME280;68002;52.310;6.990;2023-04-03T01:19:07;102787.38;;;2.79;75.78
78685;BME280;68002;52.310;6.990;2023-04-03T01:22:18;102781.22;;;2.78;75.35
78685;BME280;68002;52.310;6.990;2023-04-03T01:24:45;102786.56;;;2.77;75.16
78685;BME280;68002;52.310;6.990;2023-04-03T01:27:11;102786.66;;;2.74;76.17
78685;BME280;68002;52.310;6.990;2023-04-03T01:29:37;102788.38;;;2.75;75.42
78685;BME280;68002;52.310;6.990;2023-04-03T01:32:03;102782.34;;;2.70;75.87
78685;BME280;68002;52.310;6.990;2023-04-03T01:34:30;102792.03;;;2.71;76.16
78685;BME280;68002;52.310;6.990;2023-04-03T01:36:56;102794.78;;;2.66;75.68
78685;BME280;68002;52.310;6.990;2023-04-03T01:39:22;102793.22;;;2.59;75.05
78685;BME280;68002;52.310;6.990;2023-04-03T01:41:48;102796.81;;;2.57;75.04
78685;BME280;68002;52.310;6.990;2023-04-03T01:44:13;102799.53;;;2.54;74.79
78685;BME280;68002;52.310;6.990;2023-04-03T01:46:38;102788.22;;;2.49;75.88
78685;BME280;68002;52.310;6.990;2023-04-03T01:49:04;102788.28;;;2.46;75.79
78685;BME280;68002;52.310;6.990;2023-04-03T01:51:30;102787.47;;;2.44;76.07
78685;BME280;68002;52.310;6.990;2023-04-03T01:53:55;102800.81;;;2.39;76.47
78685;BME280;68002;52.310;6.990;2023-04-03T01:56:20;102804.31;;;2.38;74.84
78685;BME280;68002;52.310;6.990;2023-04-03T01:58:46;102790.34;;;2.35;75.59
78685;BME280;68002;52.310;6.990;2023-04-03T02:01:11;102796.53;;;2.34;77.23
78685;BME280;68002;52.310;6.990;2023-04-03T02:03:36;102798.34;;;2.32;75.73
78685;BME280;68002;52.310;6.990;2023-04-03T02:06:01;102800.94;;;2.33;74.81
78685;BME280;68002;52.310;6.990;2023-04-03T02:08:27;102804.66;;;2.26;76.73
78685;BME280;68002;52.310;6.990;2023-04-03T02:10:52;102808.22;;;2.24;75.26
78685;BME280;68002;52.310;6.990;2023-04-03T02:13:17;102809.22;;;2.20;75.87
78685;BME280;68002;52.310;6.990;2023-04-03T02:15:43;102812.84;;;2.16;75.79
78685;BME280;68002;52.310;6.990;2023-04-03T02:18:09;102813.72;;;2.16;75.51
78685;BME280;68002;52.310;6.990;2023-04-03T02:20:34;102814.75;;;2.09;75.71
78685;BME280;68002;52.310;6.990;2023-04-03T02:23:00;102818.31;;;2.08;75.69
78685;BME280;68002;52.310;6.990;2023-04-03T02:25:26;102818.34;;;2.07;76.22
78685;BME280;68002;52.310;6.990;2023-04-03T02:27:51;102822.84;;;2.03;75.35
78685;BME280;68002;52.310;6.990;2023-04-03T02:30:16;102818.44;;;2.02;76.61
78685;BME280;68002;52.310;6.990;2023-04-03T02:32:42;102822.88;;;2.00;76.25
78685;BME280;68002;52.310;6.990;2023-04-03T02:35:09;102819.41;;;1.99;76.41
78685;BME280;68002;52.310;6.990;2023-04-03T02:37:34;102823.84;;;1.97;76.94
78685;BME280;68002;52.310;6.990;2023-04-03T02:39:59;102821.31;;;1.93;76.21
78685;BME280;68002;52.310;6.990;2023-04-03T02:42:25;102825.75;;;1.91;77.65
78685;BME280;68002;52.310;6.990;2023-04-03T02:44:50;102825.81;;;1.88;77.20
78685;BME280;68002;52.310;6.990;2023-04-03T02:47:15;102818.88;;;1.84;76.71
78685;BME280;68002;52.310;6.990;2023-04-03T02:49:40;102813.75;;;1.78;77.36
78685;BME280;68002;52.310;6.990;2023-04-03T02:52:06;102815.59;;;1.74;77.19
78685;BME280;68002;52.310;6.990;2023-04-03T02:54:31;102822.66;;;1.72;76.77
78685;BME280;68002;52.310;6.990;2023-04-03T02:56:57;102824.53;;;1.67;77.08
78685;BME280;68002;52.310;6.990;2023-04-03T02:59:22;102832.44;;;1.67;77.73
78685;BME280;68002;52.310;6.990;2023-04-03T03:01:47;102827.25;;;1.64;78.08
78685;BME280;68002;52.310;6.990;2023-04-03T03:04:12;102819.38;;;1.61;77.78
78685;BME280;68002;52.310;6.990;2023-04-03T03:06:38;102825.66;;;1.57;78.00
78685;BME280;68002;52.310;6.990;2023-04-03T03:09:03;102819.44;;;1.60;78.65
78685;BME280;68002;52.310;6.990;2023-04-03T03:11:29;102820.38;;;1.57;77.23
78685;BME280;68002;52.310;6.990;2023-04-03T03:13:55;102811.69;;;1.54;77.69
78685;BME280;68002;52.310;6.990;2023-04-03T03:16:20;102828.41;;;1.51;77.49
78685;BME280;68002;52.310;6.990;2023-04-03T03:18:46;102820.47;;;1.53;77.87
78685;BME280;68002;52.310;6.990;2023-04-03T03:21:11;102826.72;;;1.49;77.49
78685;BME280;68002;52.310;6.990;2023-04-03T03:23:36;102824.16;;;1.46;77.44
78685;BME280;68002;52.310;6.990;2023-04-03T03:26:05;102823.38;;;1.39;77.96
78685;BME280;68002;52.310;6.990;2023-04-03T03:28:31;102833.94;;;1.39;77.55
78685;BME280;68002;52.310;6.990;2023-04-03T03:30:57;102828.69;;;1.38;77.41
78685;BME280;68002;52.310;6.990;2023-04-03T03:33:23;102831.41;;;1.35;77.42
78685;BME280;68002;52.310;6.990;2023-04-03T03:35:48;102834.13;;;1.30;77.37
78685;BME280;68002;52.310;6.990;2023-04-03T03:38:14;102832.44;;;1.28;78.05
78685;BME280;68002;52.310;6.990;2023-04-03T03:40:39;102836.91;;;1.24;77.80
78685;BME280;68002;52.310;6.990;2023-04-03T03:43:04;102841.34;;;1.22;77.86
78685;BME280;68002;52.310;6.990;2023-04-03T03:45:29;102837.00;;;1.20;77.80
78685;BME280;68002;52.310;6.990;2023-04-03T03:47:54;102833.63;;;1.13;77.56
78685;BME280;68002;52.310;6.990;2023-04-03T03:50:20;102836.28;;;1.12;77.42
78685;BME280;68002;52.310;6.990;2023-04-03T03:52:45;102833.75;;;1.07;77.26
78685;BME280;68002;52.310;6.990;2023-04-03T03:55:10;102837.31;;;1.03;77.44
78685;BME280;68002;52.310;6.990;2023-04-03T03:57:35;102836.47;;;1.01;77.71
78685;BME280;68002;52.310;6.990;2023-04-03T04:00:01;102840.09;;;0.97;77.02
78685;BME280;68002;52.310;6.990;2023-04-03T04:02:26;102840.97;;;0.96;77.60
78685;BME280;68002;52.310;6.990;2023-04-03T04:04:51;102841.97;;;0.90;78.01
78685;BME280;68002;52.310;6.990;2023-04-03T04:07:16;102848.19;;;0.86;77.91
78685;BME280;68002;52.310;6.990;2023-04-03T04:09:42;102842.09;;;0.83;78.57
78685;BME280;68002;52.310;6.990;2023-04-03T04:12:07;102850.06;;;0.80;77.11
78685;BME280;68002;52.310;6.990;2023-04-03T04:14:32;102850.22;;;0.72;77.41
78685;BME280;68002;52.310;6.990;2023-04-03T04:16:57;102859.88;;;0.72;78.09
78685;BME280;68002;52.310;6.990;2023-04-03T04:19:22;102857.41;;;0.63;77.23
78685;BME280;68002;52.310;6.990;2023-04-03T04:21:48;102866.22;;;0.62;79.68
78685;BME280;68002;52.310;6.990;2023-04-03T04:24:13;102861.88;;;0.58;79.29
78685;BME280;68002;52.310;6.990;2023-04-03T04:26:38;102881.19;;;0.58;78.50
78685;BME280;68002;52.310;6.990;2023-04-03T04:29:04;102875.09;;;0.56;78.97
78685;BME280;68002;52.310;6.990;2023-04-03T04:31:29;102876.03;;;0.52;78.86
78685;BME280;68002;52.310;6.990;2023-04-03T04:33:54;102876.09;;;0.48;79.22
78685;BME280;68002;52.310;6.990;2023-04-03T04:36:19;102876.16;;;0.45;80.53
78685;BME280;68002;52.310;6.990;2023-04-03T04:38:45;102880.53;;;0.44;79.32
78685;BME280;68002;52.310;6.990;2023-04-03T04:41:10;102883.19;;;0.43;78.81
78685;BME280;68002;52.310;6.990;2023-04-03T04:43:35;102881.50;;;0.39;78.82
78685;BME280;68002;52.310;6.990;2023-04-03T04:46:08;102883.31;;;0.35;79.06
78685;BME280;68002;52.310;6.990;2023-04-03T04:48:34;102886.88;;;0.33;79.68
78685;BME280;68002;52.310;6.990;2023-04-03T04:51:00;102897.41;;;0.33;79.82
78685;BME280;68002;52.310;6.990;2023-04-03T04:53:25;102900.91;;;0.32;79.44
78685;BME280;68002;52.310;6.990;2023-04-03T04:55:51;102900.13;;;0.27;79.21
78685;BME280;68002;52.310;6.990;2023-04-03T04:58:16;102909.72;;;0.31;79.50
78685;BME280;68002;52.310;6.990;2023-04-03T05:00:41;102911.47;;;0.30;79.69
78685;BME280;68002;52.310;6.990;2023-04-03T05:03:07;102924.66;;;0.29;79.48
78685;BME280;68002;52.310;6.990;2023-04-03T05:05:32;102919.41;;;0.29;79.09
78685;BME280;68002;52.310;6.990;2023-04-03T05:07:57;102920.34;;;0.25;79.75
78685;BME280;68002;52.310;6.990;2023-04-03T05:10:22;102918.59;;;0.24;79.56
78685;BME280;68002;52.310;6.990;2023-04-03T05:12:48;102924.78;;;0.21;79.37
78685;BME280;68002;52.310;6.990;2023-04-03T05:15:13;102925.66;;;0.22;79.87
78685;BME280;68002;52.310;6.990;2023-04-03T05:17:38;102922.19;;;0.17;79.96
78685;BME280;68002;52.310;6.990;2023-04-03T05:20:04;102920.41;;;0.19;79.76
78685;BME280;68002;52.310;6.990;2023-04-03T05:22:30;102922.19;;;0.18;79.94
78685;BME280;68002;52.310;6.990;2023-04-03T05:24:55;102921.03;;;0.36;79.89
78685;BME280;68002;52.310;6.990;2023-04-03T05:27:20;102920.59;;;0.63;79.40
78685;BME280;68002;52.310;6.990;2023-04-03T05:29:45;102914.88;;;0.88;79.14
78685;BME280;68002;52.310;6.990;2023-04-03T05:32:11;102913.56;;;1.12;77.78
78685;BME280;68002;52.310;6.990;2023-04-03T05:34:36;102911.50;;;1.29;77.98
78685;BME280;68002;52.310;6.990;2023-04-03T05:37:01;102918.19;;;1.45;77.46
78685;BME280;68002;52.310;6.990;2023-04-03T05:39:27;102916.88;;;1.66;78.81
78685;BME280;68002;52.310;6.990;2023-04-03T05:41:52;102914.66;;;1.87;77.30
78685;BME280;68002;52.310;6.990;2023-04-03T05:44:17;102918.69;;;2.03;76.43
78685;BME280;68002;52.310;6.990;2023-04-03T05:46:42;102922.75;;;2.18;76.38
78685;BME280;68002;52.310;6.990;2023-04-03T05:49:08;102930.09;;;2.42;76.66
78685;BME280;68002;52.310;6.990;2023-04-03T05:51:35;102941.84;;;2.67;77.28
78685;BME280;68002;52.310;6.990;2023-04-03T05:54:28;102921.44;;;2.72;75.61
78685;BME280;68002;52.310;6.990;2023-04-03T05:56:52;102935.47;;;3.08;76.25
78685;BME280;68002;52.310;6.990;2023-04-03T05:59:18;102937.63;;;3.26;75.91
78685;BME280;68002;52.310;6.990;2023-04-03T06:01:43;102939.66;;;3.49;75.50
78685;BME280;68002;52.310;6.990;2023-04-03T06:04:09;102941.94;;;3.62;74.44
78685;BME280;68002;52.310;6.990;2023-04-03T06:09:13;102950.50;;;4.01;73.79
78685;BME280;68002;52.310;6.990;2023-04-03T06:11:38;102944.94;;;4.08;71.93
78685;BME280;68002;52.310;6.990;2023-04-03T06:14:03;102950.50;;;4.29;73.18
78685;BME280;68002;52.310;6.990;2023-04-03T06:16:28;102948.38;;;4.40;71.94
78685;BME280;68002;52.310;6.990;2023-04-03T06:18:54;102943.72;;;4.48;68.95
78685;BME280;68002;52.310;6.990;2023-04-03T06:21:19;102944.53;;;4.50;70.56
78685;BME280;68002;52.310;6.990;2023-04-03T06:23:44;102943.69;;;4.75;69.62
78685;BME280;68002;52.310;6.990;2023-04-03T06:26:09;102945.41;;;5.02;68.45
78685;BME280;68002;52.310;6.990;2023-04-03T06:28:35;102944.44;;;5.05;66.95
78685;BME280;68002;52.310;6.990;2023-04-03T06:31:00;102931.75;;;5.13;66.92
78685;BME280;68002;52.310;6.990;2023-04-03T06:33:25;102939.19;;;5.28;64.86
78685;BME280;68002;52.310;6.990;2023-04-03T06:35:56;102945.00;;;5.39;65.57
78685;BME280;68002;52.310;6.990;2023-04-03T06:38:21;102941.94;;;5.74;66.18
78685;BME280;68002;52.310;6.990;2023-04-03T06:40:47;102941.19;;;5.71;64.35
78685;BME280;68002;52.310;6.990;2023-04-03T06:43:12;102941.56;;;5.60;61.58
78685;BME280;68002;52.310;6.990;2023-04-03T06:45:37;102949.81;;;5.76;60.06
78685;BME280;68002;52.310;6.990;2023-04-03T06:48:02;102948.56;;;5.87;62.79
78685;BME280;68002;52.310;6.990;2023-04-03T06:50:28;102945.63;;;5.93;61.36
78685;BME280;68002;52.310;6.990;2023-04-03T06:52:53;102952.50;;;6.22;61.84
78685;BME280;68002;52.310;6.990;2023-04-03T06:55:18;102955.41;;;6.59;60.21
78685;BME280;68002;52.310;6.990;2023-04-03T06:57:43;102958.19;;;6.78;59.77
78685;BME280;68002;52.310;6.990;2023-04-03T07:00:10;102950.47;;;6.93;58.13
78685;BME280;68002;52.310;6.990;2023-04-03T07:02:35;102968.28;;;6.91;55.40
78685;BME280;68002;52.310;6.990;2023-04-03T07:05:01;102952.66;;;7.04;55.64
78685;BME280;68002;52.310;6.990;2023-04-03T07:07:26;102962.41;;;7.25;57.35
78685;BME280;68002;52.310;6.990;2023-04-03T07:09:51;102968.47;;;7.49;55.93
78685;BME280;68002;52.310;6.990;2023-04-03T07:12:17;102952.19;;;7.35;54.12
78685;BME280;68002;52.310;6.990;2023-04-03T07:14:42;102971.94;;;7.31;52.75
78685;BME280;68002;52.310;6.990;2023-04-03T07:17:07;102968.38;;;7.10;54.70
78685;BME280;68002;52.310;6.990;2023-04-03T07:19:32;102976.97;;;7.57;54.74
78685;BME280;68002;52.310;6.990;2023-04-03T07:21:57;102971.78;;;7.34;53.52
78685;BME280;68002;52.310;6.990;2023-04-03T07:24:23;102977.09;;;7.54;52.46
78685;BME280;68002;52.310;6.990;2023-04-03T07:26:52;102985.59;;;7.82;52.53
78685;BME280;68002;52.310;6.990;2023-04-03T07:29:18;102984.91;;;8.15;51.89
78685;BME280;68002;52.310;6.990;2023-04-03T07:31:43;102984.91;;;8.15;51.71
78685;BME280;68002;52.310;6.990;2023-04-03T07:34:08;102984.88;;;8.36;50.56
78685;BME280;68002;52.310;6.990;2023-04-03T07:36:33;102982.81;;;8.78;51.80
78685;BME280;68002;52.310;6.990;2023-04-03T07:38:58;102988.31;;;8.56;48.15
78685;BME280;68002;52.310;6.990;2023-04-03T07:41:24;102990.03;;;8.76;50.02
78685;BME280;68002;52.310;6.990;2023-04-03T07:43:49;102985.69;;;9.09;49.78
78685;BME280;68002;52.310;6.990;2023-04-03T07:46:14;102987.34;;;9.46;47.23
78685;BME280;68002;52.310;6.990;2023-04-03T07:48:39;102986.84;;;9.55;45.44
78685;BME280;68002;52.310;6.990;2023-04-03T07:51:05;102986.94;;;9.70;46.17
78685;BME280;68002;52.310;6.990;2023-04-03T07:53:31;102984.28;;;9.86;43.58
78685;BME280;68002;52.310;6.990;2023-04-03T07:55:58;102987.66;;;9.89;43.07
78685;BME280;68002;52.310;6.990;2023-04-03T07:58:24;102985.84;;;9.23;40.96
78685;BME280;68002;52.310;6.990;2023-04-03T08:00:49;102986.81;;;9.39;43.91
78685;BME280;68002;52.310;6.990;2023-04-03T08:03:15;102995.47;;;9.60;42.72
78685;BME280;68002;52.310;6.990;2023-04-03T08:05:42;102996.34;;;9.60;41.45
78685;BME280;68002;52.310;6.990;2023-04-03T08:08:08;102994.16;;;10.01;40.89
78685;BME280;68002;52.310;6.990;2023-04-03T08:10:34;102988.63;;;9.88;38.91
78685;BME280;68002;52.310;6.990;2023-04-03T08:12:59;103000.78;;;9.61;39.51
78685;BME280;68002;52.310;6.990;2023-04-03T08:15:25;102999.22;;;9.90;39.05
78685;BME280;68002;52.310;6.990;2023-04-03T08:17:50;102993.56;;;9.96;38.83
78685;BME280;68002;52.310;6.990;2023-04-03T08:20:16;102996.22;;;9.96;37.91
78685;BME280;68002;52.310;6.990;2023-04-03T08:22:41;102996.56;;;10.23;39.19
78685;BME280;68002;52.310;6.990;2023-04-03T08:25:07;102994.78;;;10.54;39.23
78685;BME280;68002;52.310;6.990;2023-04-03T08:27:33;102995.03;;;10.50;37.16
78685;BME280;68002;52.310;6.990;2023-04-03T08:29:58;102997.28;;;10.73;37.31
78685;BME280;68002;52.310;6.990;2023-04-03T08:32:23;102993.06;;;10.05;35.95
78685;BME280;68002;52.310;6.990;2023-04-03T08:34:49;102993.06;;;10.05;35.85
78685;BME280;68002;52.310;6.990;2023-04-03T08:37:15;102988.94;;;10.15;38.29
78685;BME280;68002;52.310;6.990;2023-04-03T08:39:40;102989.25;;;10.42;34.38
78685;BME280;68002;52.310;6.990;2023-04-03T08:42:16;102991.66;;;10.93;34.94
78685;BME280;68002;52.310;6.990;2023-04-03T08:47:30;102999.50;;;11.26;34.36
78685;BME280;68002;52.310;6.990;2023-04-03T08:50:07;102992.41;;;11.54;34.08
78685;BME280;68002;52.310;6.990;2023-04-03T08:52:40;102990.63;;;11.69;34.58
78685;BME280;68002;52.310;6.990;2023-04-03T08:55:15;102984.63;;;12.36;33.27
78685;BME280;68002;52.310;6.990;2023-04-03T08:57:44;103007.91;;;12.35;32.41
78685;BME280;68002;52.310;6.990;2023-04-03T09:02:55;102987.91;;;11.84;30.33
78685;BME280;68002;52.310;6.990;2023-04-03T09:08:37;102981.78;;;11.23;30.11
78685;BME280;68002;52.310;6.990;2023-04-03T09:11:24;102998.63;;;11.55;31.16
78685;BME280;68002;52.310;6.990;2023-04-03T09:14:01;102992.97;;;11.59;30.06
78685;BME280;68002;52.310;6.990;2023-04-03T09:16:43;102987.91;;;11.55;28.18
78685;BME280;68002;52.310;6.990;2023-04-03T09:22:00;102995.94;;;12.12;27.96
78685;BME280;68002;52.310;6.990;2023-04-03T09:24:27;102998.72;;;11.83;28.50
78685;BME280;68002;52.310;6.990;2023-04-03T09:26:58;102993.81;;;12.32;29.06
78685;BME280;68002;52.310;6.990;2023-04-03T09:29:26;102992.63;;;12.50;26.94
78685;BME280;68002;52.310;6.990;2023-04-03T09:32:00;102997.84;;;12.25;27.23
78685;BME280;68002;52.310;6.990;2023-04-03T09:34:29;102982.69;;;11.81;26.77
78685;BME280;68002;52.310;6.990;2023-04-03T09:36:58;102976.50;;;11.81;28.19
78685;BME280;68002;52.310;6.990;2023-04-03T09:39:26;102981.13;;;11.63;27.33
78685;BME280;68002;52.310;6.990;2023-04-03T09:44:26;102973.78;;;12.09;26.90
78685;BME280;68002;52.310;6.990;2023-04-03T09:46:52;102988.94;;;11.68;28.03
78685;BME280;68002;52.310;6.990;2023-04-03T09:49:18;102979.84;;;11.84;28.94
78685;BME280;68002;52.310;6.990;2023-04-03T09:51:43;102968.03;;;12.29;28.20
78685;BME280;68002;52.310;6.990;2023-04-03T09:54:32;102978.19;;;13.05;28.52
78685;BME280;68002;52.310;6.990;2023-04-03T09:57:02;102966.47;;;12.80;25.36
78685;BME280;68002;52.310;6.990;2023-04-03T09:59:30;102980.91;;;12.65;27.09
78685;BME280;68002;52.310;6.990;2023-04-03T10:02:04;102971.22;;;12.62;26.07
78685;BME280;68002;52.310;6.990;2023-04-03T10:04:42;102968.03;;;12.43;26.47
78685;BME280;68002;52.310;6.990;2023-04-03T10:07:30;102964.56;;;12.41;26.04
78685;BME280;68002;52.310;6.990;2023-04-03T10:09:57;102968.31;;;12.10;27.64
78685;BME280;68002;52.310;6.990;2023-04-03T10:12:23;102964.00;;;12.22;27.73
78685;BME280;68002;52.310;6.990;2023-04-03T10:14:59;102959.28;;;12.93;28.90
78685;BME280;68002;52.310;6.990;2023-04-03T10:24:54;102950.72;;;12.61;26.51
78685;BME280;68002;52.310;6.990;2023-04-03T10:30:29;102954.25;;;12.88;26.45
78685;BME280;68002;52.310;6.990;2023-04-03T10:33:07;102951.13;;;13.21;27.62
78685;BME280;68002;52.310;6.990;2023-04-03T10:35:42;102959.06;;;13.10;28.02
78685;BME280;68002;52.310;6.990;2023-04-03T10:38:59;102930.53;;;12.68;26.50
78685;BME280;68002;52.310;6.990;2023-04-03T10:41:24;102934.97;;;12.29;27.75
78685;BME280;68002;52.310;6.990;2023-04-03T10:44:20;102928.91;;;12.92;26.68
78685;BME280;68002;52.310;6.990;2023-04-03T10:46:53;102938.41;;;13.62;25.56
78685;BME280;68002;52.310;6.990;2023-04-03T10:52:20;102927.75;;;12.70;24.89
78685;BME280;68002;52.310;6.990;2023-04-03T10:57:19;102927.63;;;13.50;26.67
78685;BME280;68002;52.310;6.990;2023-04-03T10:59:48;102924.63;;;13.42;25.31
78685;BME280;68002;52.310;6.990;2023-04-03T11:02:27;102927.06;;;13.20;26.10
78685;BME280;68002;52.310;6.990;2023-04-03T11:05:01;102919.13;;;13.18;26.02
78685;BME280;68002;52.310;6.990;2023-04-03T11:07:28;102918.56;;;12.86;27.79
78685;BME280;68002;52.310;6.990;2023-04-03T11:10:00;102919.78;;;13.34;26.57
78685;BME280;68002;52.310;6.990;2023-04-03T11:12:38;102922.16;;;13.64;26.39
78685;BME280;68002;52.310;6.990;2023-04-03T11:15:13;102916.25;;;14.20;25.95
78685;BME280;68002;52.310;6.990;2023-04-03T11:17:44;102915.56;;;14.42;25.77
78685;BME280;68002;52.310;6.990;2023-04-03T11:20:22;102907.34;;;14.56;25.28
78685;BME280;68002;52.310;6.990;2023-04-03T11:25:29;102906.72;;;15.22;26.20
78685;BME280;68002;52.310;6.990;2023-04-03T11:28:04;102912.84;;;14.89;24.40
78685;BME280;68002;52.310;6.990;2023-04-03T11:30:54;102900.94;;;14.80;25.08
78685;BME280;68002;52.310;6.990;2023-04-03T11:36:31;102895.84;;;15.34;25.12
78685;BME280;68002;52.310;6.990;2023-04-03T11:39:02;102894.34;;;15.19;24.40
78685;BME280;68002;52.310;6.990;2023-04-03T11:41:32;102877.06;;;15.10;24.74
78685;BME280;68002;52.310;6.990;2023-04-03T11:44:01;102882.81;;;15.17;25.58
78685;BME280;68002;52.310;6.990;2023-04-03T11:46:49;102882.03;;;15.04;25.31
78685;BME280;68002;52.310;6.990;2023-04-03T11:57:46;102852.34;;;14.58;25.35
78685;BME280;68002;52.310;6.990;2023-04-03T12:16:30;102857.31;;;14.04;27.30
78685;BME280;68002;52.310;6.990;2023-04-03T12:29:24;102855.75;;;14.13;30.04
78685;BME280;68002;52.310;6.990;2023-04-03T12:38:25;102853.63;;;13.19;28.67
78685;BME280;68002;52.310;6.990;2023-04-03T12:44:22;102845.13;;;12.61;29.92
78685;BME280;68002;52.310;6.990;2023-04-03T12:46:52;102835.78;;;12.54;30.81
78685;BME280;68002;52.310;6.990;2023-04-03T12:49:29;102836.84;;;12.64;29.66
78685;BME280;68002;52.310;6.990;2023-04-03T12:51:58;102826.97;;;13.16;28.71
78685;BME280;68002;52.310;6.990;2023-04-03T12:54:27;102836.53;;;13.45;29.30
78685;BME280;68002;52.310;6.990;2023-04-03T12:57:11;102835.47;;;13.60;28.00
78685;BME280;68002;52.310;6.990;2023-04-03T12:59:37;102808.91;;;14.15;27.26
78685;BME280;68002;52.310;6.990;2023-04-03T13:02:03;102803.34;;;13.82;27.37
78685;BME280;68002;52.310;6.990;2023-04-03T13:04:33;102828.34;;;13.59;27.87
78685;BME280;68002;52.310;6.990;2023-04-03T13:06:58;102821.75;;;14.36;27.92
78685;BME280;68002;52.310;6.990;2023-04-03T13:09:29;102818.53;;;14.54;27.02
78685;BME280;68002;52.310;6.990;2023-04-03T13:11:59;102818.91;;;14.50;27.58
78685;BME280;68002;52.310;6.990;2023-04-03T13:14:27;102811.28;;;13.48;28.16
78685;BME280;68002;52.310;6.990;2023-04-03T13:17:02;102821.75;;;12.88;29.76
78685;BME280;68002;52.310;6.990;2023-04-03T13:19:28;102822.47;;;11.99;30.90
78685;BME280;68002;52.310;6.990;2023-04-03T13:22:11;102811.22;;;12.33;31.43
78685;BME280;68002;52.310;6.990;2023-04-03T13:24:49;102802.69;;;13.05;29.90
78685;BME280;68002;52.310;6.990;2023-04-03T13:27:16;102805.59;;;14.12;28.86
78685;BME280;68002;52.310;6.990;2023-04-03T13:29:42;102796.69;;;14.70;27.55
78685;BME280;68002;52.310;6.990;2023-04-03T13:32:22;102790.13;;;14.85;26.47
78685;BME280;68002;52.310;6.990;2023-04-03T13:34:48;102802.75;;;14.50;27.26
78685;BME280;68002;52.310;6.990;2023-04-03T13:37:23;102796.75;;;14.92;27.23
78685;BME280;68002;52.310;6.990;2023-04-03T13:42:32;102781.38;;;15.16;26.67
78685;BME280;68002;52.310;6.990;2023-04-03T13:47:41;102797.88;;;14.55;25.01
78685;BME280;68002;52.310;6.990;2023-04-03T13:50:19;102785.66;;;14.14;25.82
78685;BME280;68002;52.310;6.990;2023-04-03T13:52:54;102790.91;;;14.29;26.38
78685;BME280;68002;52.310;6.990;2023-04-03T13:55:33;102775.91;;;14.37;27.57
78685;BME280;68002;52.310;6.990;2023-04-03T14:00:36;102780.22;;;14.96;26.57
78685;BME280;68002;52.310;6.990;2023-04-03T14:03:02;102780.53;;;14.70;26.64
78685;BME280;68002;52.310;6.990;2023-04-03T14:05:29;102760.06;;;14.67;26.90
78685;BME280;68002;52.310;6.990;2023-04-03T14:07:54;102775.78;;;14.84;26.48
78685;BME280;68002;52.310;6.990;2023-04-03T14:10:20;102761.84;;;14.90;25.52
78685;BME280;68002;52.310;6.990;2023-04-03T14:12:46;102761.75;;;15.25;25.81
78685;BME280;68002;52.310;6.990;2023-04-03T14:15:19;102757.81;;;14.96;24.64
78685;BME280;68002;52.310;6.990;2023-04-03T14:17:45;102760.75;;;15.70;25.49
78685;BME280;68002;52.310;6.990;2023-04-03T14:20:18;102745.22;;;16.05;24.50
78685;BME280;68002;52.310;6.990;2023-04-03T14:22:43;102752.38;;;16.59;24.61
78685;BME280;68002;52.310;6.990;2023-04-03T14:25:09;102747.72;;;16.91;23.71
78685;BME280;68002;52.310;6.990;2023-04-03T14:27:38;102739.59;;;16.61;24.48
78685;BME280;68002;52.310;6.990;2023-04-03T14:30:06;102736.63;;;16.00;24.58
78685;BME280;68002;52.310;6.990;2023-04-03T14:32:33;102736.19;;;15.84;24.57
78685;BME280;68002;52.310;6.990;2023-04-03T14:34:58;102735.13;;;15.65;25.21